sensor_id;sensor_type;location;lat;lon;timestamp;pressure;altitude;pressure_sealevel;temperature;humidity
55032;BME280;40928;51.076;7.950;2023-12-04T00:01:21;96930.75;;;-3.15;100.00
55032;BME280;40928;51.076;7.950;2023-12-04T00:03:47;96926.38;;;-3.14;100.00
55032;BME280;40928;51.076;7.950;2023-12-04T00:06:13;96918.97;;;-3.19;100.00
55032;BME280;40928;51.076;7.950;2023-12-04T00:08:40;96906.13;;;-3.12;100.00
55032;BME280;40928;51.076;7.950;2023-12-04T00:11:06;96910.31;;;-3.19;100.00
55032;BME280;40928;51.076;7.950;2023-12-04T00:13:32;96917.19;;;-3.18;100.00
55032;BME280;40928;51.076;7.950;2023-12-04T00:15:59;96901.88;;;-3.13;100.00
55032;BME280;40928;51.076;7.950;2023-12-04T00:18:25;96893.22;;;-3.14;100.00
55032;BME280;40928;51.076;7.950;2023-12-04T00:20:51;96902.19;;;-3.16;100.00
55032;BME280;40928;51.076;7.950;2023-12-04T00:23:16;96899.56;;;-3.16;100.00
55032;BME280;40928;51.076;7.950;2023-12-04T00:25:42;96903.00;;;-3.16;99.65
55032;BME280;40928;51.076;7.950;2023-12-04T00:28:08;96894.03;;;-3.13;99.09
55032;BME280;40928;51.076;7.950;2023-12-04T00:30:33;96911.84;;;-3.09;98.82
55032;BME280;40928;51.076;7.950;2023-12-04T00:32:59;96900.25;;;-3.14;99.31
55032;BME280;40928;51.076;7.950;2023-12-04T00:35:25;96897.97;;;-3.09;98.15
55032;BME280;40928;51.076;7.950;2023-12-04T00:37:51;96893.28;;;-3.06;97.50
55032;BME280;40928;51.076;7.950;2023-12-04T00:40:16;96885.88;;;-3.10;98.39
55032;BME280;40928;51.076;7.950;2023-12-04T00:42:42;96889.16;;;-3.08;97.32
55032;BME280;40928;51.076;7.950;2023-12-04T00:45:08;96888.34;;;-3.09;97.06
55032;BME280;40928;51.076;7.950;2023-12-04T00:47:34;96882.97;;;-3.07;95.66
55032;BME280;40928;51.076;7.950;2023-12-04T00:49:59;96881.63;;;-3.11;97.22
55032;BME280;40928;51.076;7.950;2023-12-04T00:52:25;96878.69;;;-3.16;97.26
55032;BME280;40928;51.076;7.950;2023-12-04T00:54:51;96873.47;;;-3.16;97.23
55032;BME280;40928;51.076;7.950;2023-12-04T00:57:16;96876.75;;;-3.14;97.25
55032;BME280;40928;51.076;7.950;2023-12-04T00:59:42;96875.44;;;-3.10;96.34
55032;BME280;40928;51.076;7.950;2023-12-04T01:02:07;96866.97;;;-3.12;96.91
55032;BME280;40928;51.076;7.950;2023-12-04T01:04:33;96872.50;;;-3.07;96.48
55032;BME280;40928;51.076;7.950;2023-12-04T01:06:59;96868.44;;;-3.10;96.09
55032;BME280;40928;51.076;7.950;2023-12-04T01:09:25;96861.88;;;-3.14;95.78
55032;BME280;40928;51.076;7.950;2023-12-04T01:11:54;96856.16;;;-3.09;95.92
55032;BME280;40928;51.076;7.950;2023-12-04T01:14:20;96856.16;;;-3.09;96.15
55032;BME280;40928;51.076;7.950;2023-12-04T01:16:46;96852.25;;;-3.13;94.68
55032;BME280;40928;51.076;7.950;2023-12-04T01:19:12;96848.13;;;-3.16;95.90
55032;BME280;40928;51.076;7.950;2023-12-04T01:21:38;96848.97;;;-3.15;96.10
55032;BME280;40928;51.076;7.950;2023-12-04T01:24:03;96842.00;;;-3.07;95.28
55032;BME280;40928;51.076;7.950;2023-12-04T01:26:29;96847.66;;;-3.11;94.69
55032;BME280;40928;51.076;7.950;2023-12-04T01:28:55;96840.97;;;-3.14;94.86
55032;BME280;40928;51.076;7.950;2023-12-04T01:31:21;96841.81;;;-3.13;96.37
55032;BME280;40928;51.076;7.950;2023-12-04T01:33:46;96840.34;;;-3.08;95.88
55032;BME280;40928;51.076;7.950;2023-12-04T01:36:12;96837.25;;;-3.03;95.96
55032;BME280;40928;51.076;7.950;2023-12-04T01:38:39;96829.78;;;-2.98;94.36
55032;BME280;40928;51.076;7.950;2023-12-04T01:41:05;96851.00;;;-3.01;94.84
55032;BME280;40928;51.076;7.950;2023-12-04T01:43:31;96827.47;;;-3.01;94.66
55032;BME280;40928;51.076;7.950;2023-12-04T01:45:59;96828.34;;;-2.92;92.88
55032;BME280;40928;51.076;7.950;2023-12-04T01:48:26;96834.03;;;-2.97;93.01
55032;BME280;40928;51.076;7.950;2023-12-04T01:50:52;96833.03;;;-2.96;93.53
55032;BME280;40928;51.076;7.950;2023-12-04T01:53:18;96836.66;;;-2.97;94.37
55032;BME280;40928;51.076;7.950;2023-12-04T01:55:45;96838.25;;;-2.96;93.95
55032;BME280;40928;51.076;7.950;2023-12-04T01:58:12;96823.28;;;-2.85;91.82
55032;BME280;40928;51.076;7.950;2023-12-04T02:00:38;96813.63;;;-2.93;93.25
55032;BME280;40928;51.076;7.950;2023-12-04T02:03:03;96819.84;;;-2.94;93.62
55032;BME280;40928;51.076;7.950;2023-12-04T02:05:31;96812.13;;;-2.96;93.55
55032;BME280;40928;51.076;7.950;2023-12-04T02:07:57;96815.44;;;-2.85;91.28
55032;BME280;40928;51.076;7.950;2023-12-04T02:10:23;96818.38;;;-2.88;91.33
55032;BME280;40928;51.076;7.950;2023-12-04T02:12:49;96810.72;;;-2.90;92.73
55032;BME280;40928;51.076;7.950;2023-12-04T02:15:15;96802.88;;;-2.82;91.48
55032;BME280;40928;51.076;7.950;2023-12-04T02:17:43;96820.38;;;-2.82;92.66
55032;BME280;40928;51.076;7.950;2023-12-04T02:20:12;96802.38;;;-2.77;91.63
55032;BME280;40928;51.076;7.950;2023-12-04T02:22:38;96798.13;;;-2.78;91.83
55032;BME280;40928;51.076;7.950;2023-12-04T02:25:05;96798.47;;;-2.81;92.49
55032;BME280;40928;51.076;7.950;2023-12-04T02:27:40;96803.53;;;-2.80;92.27
55032;BME280;40928;51.076;7.950;2023-12-04T02:30:11;96792.59;;;-2.75;91.72
55032;BME280;40928;51.076;7.950;2023-12-04T02:32:42;96797.19;;;-2.69;90.51
55032;BME280;40928;51.076;7.950;2023-12-04T02:35:10;96789.31;;;-2.77;92.15
55032;BME280;40928;51.076;7.950;2023-12-04T02:37:37;96789.97;;;-2.75;90.77
55032;BME280;40928;51.076;7.950;2023-12-04T02:40:04;96779.84;;;-2.78;92.08
55032;BME280;40928;51.076;7.950;2023-12-04T02:42:32;96777.25;;;-2.62;91.08
55032;BME280;40928;51.076;7.950;2023-12-04T02:44:58;96781.34;;;-2.76;90.87
55032;BME280;40928;51.076;7.950;2023-12-04T02:47:23;96776.13;;;-2.67;90.58
55032;BME280;40928;51.076;7.950;2023-12-04T02:49:49;96767.78;;;-2.71;91.30
55032;BME280;40928;51.076;7.950;2023-12-04T02:52:15;96767.75;;;-2.79;90.54
55032;BME280;40928;51.076;7.950;2023-12-04T02:54:41;96764.53;;;-2.65;89.79
55032;BME280;40928;51.076;7.950;2023-12-04T02:57:07;96760.59;;;-2.69;89.78
55032;BME280;40928;51.076;7.950;2023-12-04T02:59:34;96742.44;;;-2.79;90.31
55032;BME280;40928;51.076;7.950;2023-12-04T03:01:59;96751.13;;;-2.70;89.88
55032;BME280;40928;51.076;7.950;2023-12-04T03:04:27;96743.59;;;-2.73;89.07
55032;BME280;40928;51.076;7.950;2023-12-04T03:06:55;96732.66;;;-2.68;89.56
55032;BME280;40928;51.076;7.950;2023-12-04T03:09:21;96736.09;;;-2.68;89.99
55032;BME280;40928;51.076;7.950;2023-12-04T03:11:47;96732.66;;;-2.68;89.97
55032;BME280;40928;51.076;7.950;2023-12-04T03:14:14;96716.16;;;-2.69;90.19
55032;BME280;40928;51.076;7.950;2023-12-04T03:16:40;96723.50;;;-2.72;90.45
55032;BME280;40928;51.076;7.950;2023-12-04T03:19:06;96719.94;;;-2.63;88.85
55032;BME280;40928;51.076;7.950;2023-12-04T03:21:31;96724.66;;;-2.58;88.25
55032;BME280;40928;51.076;7.950;2023-12-04T03:23:57;96722.03;;;-2.58;87.63
55032;BME280;40928;51.076;7.950;2023-12-04T03:26:23;96721.38;;;-2.61;87.98
55032;BME280;40928;51.076;7.950;2023-12-04T03:28:49;96716.16;;;-2.61;87.40
55032;BME280;40928;51.076;7.950;2023-12-04T03:31:14;96713.41;;;-2.59;88.98
55032;BME280;40928;51.076;7.950;2023-12-04T03:33:40;96702.44;;;-2.54;87.04
55032;BME280;40928;51.076;7.950;2023-12-04T03:36:06;96695.41;;;-2.54;87.96
55032;BME280;40928;51.076;7.950;2023-12-04T03:38:32;96697.53;;;-2.57;87.73
55032;BME280;40928;51.076;7.950;2023-12-04T03:40:58;96704.22;;;-2.55;87.81
55032;BME280;40928;51.076;7.950;2023-12-04T03:43:23;96690.34;;;-2.55;87.37
55032;BME280;40928;51.076;7.950;2023-12-04T03:45:49;96688.72;;;-2.56;88.03
55032;BME280;40928;51.076;7.950;2023-12-04T03:48:15;96690.84;;;-2.52;87.12
55032;BME280;40928;51.076;7.950;2023-12-04T03:50:41;96690.69;;;-2.50;87.66
55032;BME280;40928;51.076;7.950;2023-12-04T03:53:06;96685.28;;;-2.49;85.93
55032;BME280;40928;51.076;7.950;2023-12-04T03:55:32;96689.22;;;-2.45;85.37
55032;BME280;40928;51.076;7.950;2023-12-04T03:57:58;96678.91;;;-2.46;85.41
55032;BME280;40928;51.076;7.950;2023-12-04T04:00:24;96679.88;;;-2.47;85.44
55032;BME280;40928;51.076;7.950;2023-12-04T04:02:50;96676.25;;;-2.30;82.50
55032;BME280;40928;51.076;7.950;2023-12-04T04:05:16;96671.38;;;-2.41;84.19
55032;BME280;40928;51.076;7.950;2023-12-04T04:07:42;96664.84;;;-2.45;85.15
55032;BME280;40928;51.076;7.950;2023-12-04T04:10:08;96663.56;;;-2.49;83.40
55032;BME280;40928;51.076;7.950;2023-12-04T04:12:34;96659.63;;;-2.37;81.99
55032;BME280;40928;51.076;7.950;2023-12-04T04:15:00;96657.66;;;-2.43;82.05
55032;BME280;40928;51.076;7.950;2023-12-04T04:17:26;96653.41;;;-2.44;83.91
55032;BME280;40928;51.076;7.950;2023-12-04T04:19:52;96668.13;;;-2.43;83.98
55032;BME280;40928;51.076;7.950;2023-12-04T04:22:19;96649.66;;;-2.41;83.08
55032;BME280;40928;51.076;7.950;2023-12-04T04:24:45;96653.72;;;-2.39;82.87
55032;BME280;40928;51.076;7.950;2023-12-04T04:27:11;96647.66;;;-2.39;81.38
55032;BME280;40928;51.076;7.950;2023-12-04T04:29:36;96643.41;;;-2.40;81.61
55032;BME280;40928;51.076;7.950;2023-12-04T04:32:02;96649.00;;;-2.43;82.71
55032;BME280;40928;51.076;7.950;2023-12-04T04:34:28;96643.94;;;-2.37;81.17
55032;BME280;40928;51.076;7.950;2023-12-04T04:36:53;96644.06;;;-2.38;82.75
55032;BME280;40928;51.076;7.950;2023-12-04T04:39:19;96639.69;;;-2.38;82.28
55032;BME280;40928;51.076;7.950;2023-12-04T04:41:45;96635.09;;;-2.36;82.86
55032;BME280;40928;51.076;7.950;2023-12-04T04:44:10;96638.00;;;-2.31;81.19
55032;BME280;40928;51.076;7.950;2023-12-04T04:46:36;96646.38;;;-2.27;80.34
55032;BME280;40928;51.076;7.950;2023-12-04T04:49:02;96645.84;;;-2.31;78.76
55032;BME280;40928;51.076;7.950;2023-12-04T04:51:32;96637.03;;;-2.21;77.58
55032;BME280;40928;51.076;7.950;2023-12-04T04:53:58;96638.53;;;-2.35;78.05
55032;BME280;40928;51.076;7.950;2023-12-04T04:56:24;96621.66;;;-2.24;77.41
55032;BME280;40928;51.076;7.950;2023-12-04T04:58:49;96634.25;;;-2.20;77.31
55032;BME280;40928;51.076;7.950;2023-12-04T05:01:15;96614.94;;;-2.19;75.59
55032;BME280;40928;51.076;7.950;2023-12-04T05:03:41;96622.31;;;-2.22;76.38
55032;BME280;40928;51.076;7.950;2023-12-04T05:06:07;96622.59;;;-2.17;76.23
55032;BME280;40928;51.076;7.950;2023-12-04T05:08:32;96621.47;;;-2.15;77.23
55032;BME280;40928;51.076;7.950;2023-12-04T05:10:58;96614.28;;;-2.21;76.27
55032;BME280;40928;51.076;7.950;2023-12-04T05:13:24;96619.38;;;-2.19;76.36
55032;BME280;40928;51.076;7.950;2023-12-04T05:15:49;96616.53;;;-2.09;75.41
55032;BME280;40928;51.076;7.950;2023-12-04T05:18:15;96609.19;;;-2.14;75.91
55032;BME280;40928;51.076;7.950;2023-12-04T05:20:41;96615.94;;;-2.20;75.72
55032;BME280;40928;51.076;7.950;2023-12-04T05:23:07;96611.38;;;-2.26;76.52
55032;BME280;40928;51.076;7.950;2023-12-04T05:25:33;96618.06;;;-2.23;77.30
55032;BME280;40928;51.076;7.950;2023-12-04T05:27:59;96610.22;;;-2.23;76.70
55032;BME280;40928;51.076;7.950;2023-12-04T05:30:24;96610.22;;;-2.23;77.25
55032;BME280;40928;51.076;7.950;2023-12-04T05:32:50;96607.94;;;-2.26;76.54
55032;BME280;40928;51.076;7.950;2023-12-04T05:35:16;96596.66;;;-2.27;78.52
55032;BME280;40928;51.076;7.950;2023-12-04T05:37:43;96599.63;;;-2.30;78.80
55032;BME280;40928;51.076;7.950;2023-12-04T05:40:09;96605.81;;;-2.31;78.52
55032;BME280;40928;51.076;7.950;2023-12-04T05:42:36;96608.13;;;-2.36;78.65
55032;BME280;40928;51.076;7.950;2023-12-04T05:45:02;96609.28;;;-2.39;79.50
55032;BME280;40928;51.076;7.950;2023-12-04T05:47:28;96598.50;;;-2.36;79.58
55032;BME280;40928;51.076;7.950;2023-12-04T05:49:54;96597.19;;;-2.40;80.83
55032;BME280;40928;51.076;7.950;2023-12-04T05:52:20;96598.34;;;-2.42;81.61
55032;BME280;40928;51.076;7.950;2023-12-04T05:54:46;96597.50;;;-2.43;81.48
55032;BME280;40928;51.076;7.950;2023-12-04T05:57:12;96597.84;;;-2.46;81.13
55032;BME280;40928;51.076;7.950;2023-12-04T05:59:38;96596.56;;;-2.58;80.08
55032;BME280;40928;51.076;7.950;2023-12-04T06:02:03;96593.31;;;-2.52;80.54
55032;BME280;40928;51.076;7.950;2023-12-04T06:04:29;96596.56;;;-2.50;82.34
55032;BME280;40928;51.076;7.950;2023-12-04T06:06:55;96596.56;;;-2.50;81.99
55032;BME280;40928;51.076;7.950;2023-12-04T06:09:20;96590.00;;;-2.46;81.58
55032;BME280;40928;51.076;7.950;2023-12-04T06:11:46;96588.53;;;-2.49;80.58
55032;BME280;40928;51.076;7.950;2023-12-04T06:14:12;96587.22;;;-2.53;79.52
55032;BME280;40928;51.076;7.950;2023-12-04T06:16:37;96579.56;;;-2.54;80.20
55032;BME280;40928;51.076;7.950;2023-12-04T06:19:03;96569.78;;;-2.61;80.67
55032;BME280;40928;51.076;7.950;2023-12-04T06:21:32;96586.75;;;-2.56;79.92
55032;BME280;40928;51.076;7.950;2023-12-04T06:23:58;96584.66;;;-2.61;80.60
55032;BME280;40928;51.076;7.950;2023-12-04T06:26:24;96581.72;;;-2.66;81.44
55032;BME280;40928;51.076;7.950;2023-12-04T06:28:50;96575.84;;;-2.77;81.62
55032;BME280;40928;51.076;7.950;2023-12-04T06:31:16;96578.97;;;-2.81;82.55
55032;BME280;40928;51.076;7.950;2023-12-04T06:33:42;96571.59;;;-2.86;83.40
55032;BME280;40928;51.076;7.950;2023-12-04T06:36:08;96573.09;;;-2.83;83.08
55032;BME280;40928;51.076;7.950;2023-12-04T06:38:39;96575.69;;;-2.83;83.90
55032;BME280;40928;51.076;7.950;2023-12-04T06:41:05;96575.19;;;-2.87;82.82
55032;BME280;40928;51.076;7.950;2023-12-04T06:43:31;96574.69;;;-2.74;81.40
55032;BME280;40928;51.076;7.950;2023-12-04T06:45:58;96578.63;;;-2.78;81.75
55032;BME280;40928;51.076;7.950;2023-12-04T06:48:25;96583.19;;;-2.72;80.63
55032;BME280;40928;51.076;7.950;2023-12-04T06:50:53;96584.03;;;-2.80;80.15
55032;BME280;40928;51.076;7.950;2023-12-04T06:53:18;96582.06;;;-2.86;80.84
55032;BME280;40928;51.076;7.950;2023-12-04T06:55:44;96581.75;;;-2.91;82.01
55032;BME280;40928;51.076;7.950;2023-12-04T06:58:10;96583.69;;;-2.85;81.48
55032;BME280;40928;51.076;7.950;2023-12-04T07:00:35;96579.94;;;-2.91;80.57
55032;BME280;40928;51.076;7.950;2023-12-04T07:03:01;96573.09;;;-2.92;80.23
55032;BME280;40928;51.076;7.950;2023-12-04T07:05:28;96546.00;;;-2.99;81.38
55032;BME280;40928;51.076;7.950;2023-12-04T07:07:53;96562.47;;;-2.82;80.68
55032;BME280;40928;51.076;7.950;2023-12-04T07:10:19;96545.66;;;-2.96;81.36
55032;BME280;40928;51.076;7.950;2023-12-04T07:12:45;96545.31;;;-2.93;80.84
55032;BME280;40928;51.076;7.950;2023-12-04T07:15:11;96542.22;;;-2.88;81.20
55032;BME280;40928;51.076;7.950;2023-12-04T07:17:37;96542.84;;;-2.86;80.65
55032;BME280;40928;51.076;7.950;2023-12-04T07:20:03;96556.44;;;-2.82;80.97
55032;BME280;40928;51.076;7.950;2023-12-04T07:22:32;96541.72;;;-2.83;81.14
55032;BME280;40928;51.076;7.950;2023-12-04T07:27:32;96544.00;;;-2.80;79.50
55032;BME280;40928;51.076;7.950;2023-12-04T07:29:57;96532.91;;;-2.91;79.93
55032;BME280;40928;51.076;7.950;2023-12-04T07:32:23;96533.72;;;-2.82;79.40
55032;BME280;40928;51.076;7.950;2023-12-04T07:34:48;96529.34;;;-2.98;80.39
55032;BME280;40928;51.076;7.950;2023-12-04T07:37:14;96523.94;;;-2.96;80.82
55032;BME280;40928;51.076;7.950;2023-12-04T07:39:40;96516.59;;;-3.01;81.23
55032;BME280;40928;51.076;7.950;2023-12-04T07:42:06;96522.81;;;-3.10;81.93
55032;BME280;40928;51.076;7.950;2023-12-04T07:44:32;96516.47;;;-3.08;81.79
55032;BME280;40928;51.076;7.950;2023-12-04T07:46:58;96524.78;;;-3.04;80.80
55032;BME280;40928;51.076;7.950;2023-12-04T07:49:23;96505.34;;;-3.10;82.01
55032;BME280;40928;51.076;7.950;2023-12-04T07:51:49;96512.03;;;-3.07;80.74
55032;BME280;40928;51.076;7.950;2023-12-04T07:54:14;96495.72;;;-3.01;80.91
55032;BME280;40928;51.076;7.950;2023-12-04T07:56:40;96487.88;;;-3.01;80.33
55032;BME280;40928;51.076;7.950;2023-12-04T07:59:06;96491.94;;;-2.98;79.65
55032;BME280;40928;51.076;7.950;2023-12-04T08:01:32;96480.34;;;-2.96;79.53
55032;BME280;40928;51.076;7.950;2023-12-04T08:03:57;96485.88;;;-2.91;79.57
55032;BME280;40928;51.076;7.950;2023-12-04T08:06:23;96469.03;;;-2.80;78.19
55032;BME280;40928;51.076;7.950;2023-12-04T08:08:48;96479.81;;;-2.74;77.41
55032;BME280;40928;51.076;7.950;2023-12-04T08:11:14;96467.38;;;-2.72;77.17
55032;BME280;40928;51.076;7.950;2023-12-04T08:13:40;96468.66;;;-2.68;76.98
55032;BME280;40928;51.076;7.950;2023-12-04T08:16:15;96458.06;;;-2.67;77.11
55032;BME280;40928;51.076;7.950;2023-12-04T08:18:41;96465.53;;;-2.55;76.02
55032;BME280;40928;51.076;7.950;2023-12-04T08:21:07;96465.72;;;-2.57;76.42
55032;BME280;40928;51.076;7.950;2023-12-04T08:23:33;96459.44;;;-2.48;75.46
55032;BME280;40928;51.076;7.950;2023-12-04T08:25:59;96459.75;;;-2.42;75.95
55032;BME280;40928;51.076;7.950;2023-12-04T08:28:24;96461.34;;;-2.33;74.91
55032;BME280;40928;51.076;7.950;2023-12-04T08:30:50;96451.06;;;-2.35;74.59
55032;BME280;40928;51.076;7.950;2023-12-04T08:33:16;96452.84;;;-2.35;75.10
55032;BME280;40928;51.076;7.950;2023-12-04T08:35:41;96441.28;;;-2.41;75.25
55032;BME280;40928;51.076;7.950;2023-12-04T08:38:07;96467.53;;;-2.26;75.00
55032;BME280;40928;51.076;7.950;2023-12-04T08:40:33;96465.03;;;-2.19;74.11
55032;BME280;40928;51.076;7.950;2023-12-04T08:42:58;96482.44;;;-2.03;73.51
55032;BME280;40928;51.076;7.950;2023-12-04T08:45:24;96471.75;;;-1.93;72.68
55032;BME280;40928;51.076;7.950;2023-12-04T08:47:49;96485.59;;;-1.85;73.37
55032;BME280;40928;51.076;7.950;2023-12-04T08:50:15;96474.78;;;-1.81;72.01
55032;BME280;40928;51.076;7.950;2023-12-04T08:52:41;96471.34;;;-1.82;72.13
55032;BME280;40928;51.076;7.950;2023-12-04T08:55:07;96473.16;;;-1.82;72.50
55032;BME280;40928;51.076;7.950;2023-12-04T08:57:33;96463.59;;;-1.75;70.72
55032;BME280;40928;51.076;7.950;2023-12-04T08:59:59;96447.69;;;-1.89;71.26
55032;BME280;40928;51.076;7.950;2023-12-04T09:02:24;96471.81;;;-1.78;71.79
55032;BME280;40928;51.076;7.950;2023-12-04T09:04:50;96460.34;;;-1.77;71.94
55032;BME280;40928;51.076;7.950;2023-12-04T09:07:15;96468.03;;;-1.76;72.35
55032;BME280;40928;51.076;7.950;2023-12-04T09:09:41;96466.06;;;-1.74;72.08
55032;BME280;40928;51.076;7.950;2023-12-04T09:12:07;96453.97;;;-1.75;72.87
55032;BME280;40928;51.076;7.950;2023-12-04T09:14:34;96462.38;;;-1.64;70.34
55032;BME280;40928;51.076;7.950;2023-12-04T09:17:00;96458.09;;;-1.57;71.12
55032;BME280;40928;51.076;7.950;2023-12-04T09:19:25;96441.09;;;-1.61;70.35
55032;BME280;40928;51.076;7.950;2023-12-04T09:21:51;96437.50;;;-1.60;70.72
55032;BME280;40928;51.076;7.950;2023-12-04T09:24:16;96445.13;;;-1.50;70.04
55032;BME280;40928;51.076;7.950;2023-12-04T09:26:44;96445.47;;;-1.54;70.14
55032;BME280;40928;51.076;7.950;2023-12-04T09:29:13;96439.16;;;-1.44;69.69
55032;BME280;40928;51.076;7.950;2023-12-04T09:31:39;96437.72;;;-1.47;71.66
55032;BME280;40928;51.076;7.950;2023-12-04T09:34:05;96425.78;;;-1.49;71.57
55032;BME280;40928;51.076;7.950;2023-12-04T09:36:31;96420.91;;;-1.52;71.98
55032;BME280;40928;51.076;7.950;2023-12-04T09:38:56;96428.22;;;-1.48;72.89
55032;BME280;40928;51.076;7.950;2023-12-04T09:41:22;96429.44;;;-1.59;74.28
55032;BME280;40928;51.076;7.950;2023-12-04T09:43:48;96433.69;;;-1.58;73.89
55032;BME280;40928;51.076;7.950;2023-12-04T09:46:15;96419.50;;;-1.63;74.40
55032;BME280;40928;51.076;7.950;2023-12-04T09:48:43;96423.56;;;-1.61;74.44
55032;BME280;40928;51.076;7.950;2023-12-04T09:51:10;96416.25;;;-1.65;74.91
55032;BME280;40928;51.076;7.950;2023-12-04T09:53:36;96409.22;;;-1.65;74.71
55032;BME280;40928;51.076;7.950;2023-12-04T09:56:07;96417.88;;;-1.64;74.51
55032;BME280;40928;51.076;7.950;2023-12-04T09:58:32;96404.88;;;-1.73;74.92
55032;BME280;40928;51.076;7.950;2023-12-04T10:01:02;96393.88;;;-1.68;75.82
55032;BME280;40928;51.076;7.950;2023-12-04T10:03:29;96396.59;;;-1.61;75.14
55032;BME280;40928;51.076;7.950;2023-12-04T10:05:55;96395.31;;;-1.65;74.74
55032;BME280;40928;51.076;7.950;2023-12-04T10:08:21;96394.31;;;-1.64;73.95
55032;BME280;40928;51.076;7.950;2023-12-04T10:10:47;96382.94;;;-1.72;74.82
55032;BME280;40928;51.076;7.950;2023-12-04T10:13:13;96378.31;;;-1.70;74.51
55032;BME280;40928;51.076;7.950;2023-12-04T10:15:49;96380.13;;;-1.70;75.63
55032;BME280;40928;51.076;7.950;2023-12-04T10:18:25;96367.50;;;-1.66;75.60
55032;BME280;40928;51.076;7.950;2023-12-04T10:20:55;96368.16;;;-1.64;75.17
55032;BME280;40928;51.076;7.950;2023-12-04T10:23:21;96366.66;;;-1.44;74.27
55032;BME280;40928;51.076;7.950;2023-12-04T10:25:50;96365.47;;;-1.41;73.90
55032;BME280;40928;51.076;7.950;2023-12-04T10:28:19;96358.94;;;-1.45;74.41
55032;BME280;40928;51.076;7.950;2023-12-04T10:30:45;96356.97;;;-1.43;73.80
55032;BME280;40928;51.076;7.950;2023-12-04T10:33:11;96353.81;;;-1.39;74.17
55032;BME280;40928;51.076;7.950;2023-12-04T10:35:38;96343.81;;;-1.35;73.43
55032;BME280;40928;51.076;7.950;2023-12-04T10:38:06;96325.63;;;-1.36;73.78
55032;BME280;40928;51.076;7.950;2023-12-04T10:40:33;96340.66;;;-1.30;74.38
55032;BME280;40928;51.076;7.950;2023-12-04T10:45:37;96319.78;;;-1.24;74.42
55032;BME280;40928;51.076;7.950;2023-12-04T10:48:04;96319.97;;;-1.25;74.83
55032;BME280;40928;51.076;7.950;2023-12-04T10:50:34;96292.59;;;-1.38;73.76
55032;BME280;40928;51.076;7.950;2023-12-04T10:53:13;96317.34;;;-1.25;74.65
55032;BME280;40928;51.076;7.950;2023-12-04T10:55:40;96315.81;;;-1.19;75.33
55032;BME280;40928;51.076;7.950;2023-12-04T10:58:08;96312.00;;;-1.17;74.74
55032;BME280;40928;51.076;7.950;2023-12-04T11:00:36;96296.56;;;-1.12;75.03
55032;BME280;40928;51.076;7.950;2023-12-04T11:03:10;96300.34;;;-1.14;75.27
55032;BME280;40928;51.076;7.950;2023-12-04T11:05:40;96281.06;;;-1.07;75.74
55032;BME280;40928;51.076;7.950;2023-12-04T11:08:09;96286.94;;;-1.04;75.62
55032;BME280;40928;51.076;7.950;2023-12-04T11:11:26;96280.78;;;-0.97;76.11
55032;BME280;40928;51.076;7.950;2023-12-04T11:13:34;96281.13;;;-0.85;76.89
55032;BME280;40928;51.076;7.950;2023-12-04T11:16:12;96282.84;;;-0.92;76.06
55032;BME280;40928;51.076;7.950;2023-12-04T11:18:43;96265.78;;;-0.88;76.84
55032;BME280;40928;51.076;7.950;2023-12-04T11:21:10;96265.22;;;-0.83;76.37
55032;BME280;40928;51.076;7.950;2023-12-04T11:23:37;96260.16;;;-0.85;78.10
55032;BME280;40928;51.076;7.950;2023-12-04T11:26:06;96259.59;;;-1.02;76.72
55032;BME280;40928;51.076;7.950;2023-12-04T11:28:33;96254.16;;;-1.15;77.95
55032;BME280;40928;51.076;7.950;2023-12-04T11:31:00;96255.34;;;-1.18;77.68
55032;BME280;40928;51.076;7.950;2023-12-04T11:33:34;96244.81;;;-1.25;77.72
55032;BME280;40928;51.076;7.950;2023-12-04T11:36:11;96257.19;;;-1.33;78.81
55032;BME280;40928;51.076;7.950;2023-12-04T11:38:38;96253.28;;;-1.38;79.16
55032;BME280;40928;51.076;7.950;2023-12-04T11:41:22;96239.88;;;-1.49;80.71
55032;BME280;40928;51.076;7.950;2023-12-04T11:43:48;96230.75;;;-1.54;81.92
55032;BME280;40928;51.076;7.950;2023-12-04T11:46:22;96236.44;;;-1.50;83.05
55032;BME280;40928;51.076;7.950;2023-12-04T11:48:49;96245.09;;;-1.64;84.02
55032;BME280;40928;51.076;7.950;2023-12-04T11:54:04;96231.72;;;-1.70;87.96
55032;BME280;40928;51.076;7.950;2023-12-04T11:56:30;96223.38;;;-1.65;88.59
55032;BME280;40928;51.076;7.950;2023-12-04T11:59:07;96242.69;;;-1.66;89.38
55032;BME280;40928;51.076;7.950;2023-12-04T12:01:42;96224.78;;;-1.77;91.67
55032;BME280;40928;51.076;7.950;2023-12-04T12:04:09;96226.41;;;-1.76;92.93
55032;BME280;40928;51.076;7.950;2023-12-04T12:06:35;96229.66;;;-1.74;94.07
55032;BME280;40928;51.076;7.950;2023-12-04T12:09:01;96224.88;;;-1.71;95.08
55032;BME280;40928;51.076;7.950;2023-12-04T12:11:28;96201.50;;;-1.72;96.32
55032;BME280;40928;51.076;7.950;2023-12-04T12:13:54;96207.47;;;-1.63;96.84
55032;BME280;40928;51.076;7.950;2023-12-04T12:16:19;96201.03;;;-1.61;96.92
55032;BME280;40928;51.076;7.950;2023-12-04T12:18:46;96200.31;;;-1.55;96.28
55032;BME280;40928;51.076;7.950;2023-12-04T12:21:12;96202.31;;;-1.57;97.67
55032;BME280;40928;51.076;7.950;2023-12-04T12:23:38;96196.00;;;-1.62;99.53
55032;BME280;40928;51.076;7.950;2023-12-04T12:26:04;96184.53;;;-1.61;99.33
55032;BME280;40928;51.076;7.950;2023-12-04T12:28:29;96183.69;;;-1.62;100.00
55032;BME280;40928;51.076;7.950;2023-12-04T12:30:55;96162.75;;;-1.62;100.00
55032;BME280;40928;51.076;7.950;2023-12-04T12:33:24;96154.47;;;-1.65;100.00
55032;BME280;40928;51.076;7.950;2023-12-04T12:35:50;96146.88;;;-1.60;100.00
55032;BME280;40928;51.076;7.950;2023-12-04T12:38:16;96145.97;;;-1.67;99.84
55032;BME280;40928;51.076;7.950;2023-12-04T12:40:42;96150.06;;;-1.65;99.65
55032;BME280;40928;51.076;7.950;2023-12-04T12:43:08;96154.47;;;-1.65;100.00
55032;BME280;40928;51.076;7.950;2023-12-04T12:45:40;96136.91;;;-1.72;100.00
55032;BME280;40928;51.076;7.950;2023-12-04T12:48:12;96143.47;;;-1.76;100.00
55032;BME280;40928;51.076;7.950;2023-12-04T12:50:38;96131.03;;;-1.74;100.00
55032;BME280;40928;51.076;7.950;2023-12-04T12:53:04;96109.03;;;-1.79;100.00
55032;BME280;40928;51.076;7.950;2023-12-04T12:55:29;96128.56;;;-1.75;100.00
55032;BME280;40928;51.076;7.950;2023-12-04T12:57:58;96113.78;;;-1.83;100.00
55032;BME280;40928;51.076;7.950;2023-12-04T13:00:24;96107.84;;;-1.77;100.00
55032;BME280;40928;51.076;7.950;2023-12-04T13:02:52;96102.81;;;-1.93;100.00
55032;BME280;40928;51.076;7.950;2023-12-04T13:05:21;96105.06;;;-1.90;100.00